sensor_id;sensor_type;location;lat;lon;timestamp;P1;durP1;ratioP1;P2;durP2;ratioP2
10711;SDS011;5407;51.234;6.804;2022-09-03T00:00:29;1.67;;;1.15;;
10711;SDS011;5407;51.234;6.804;2022-09-03T00:03:01;3.08;;;1.10;;
10711;SDS011;5407;51.234;6.804;2022-09-03T00:05:34;3.60;;;1.23;;
10711;SDS011;5407;51.234;6.804;2022-09-03T00:08:08;2.03;;;1.40;;
10711;SDS011;5407;51.234;6.804;2022-09-03T00:10:42;2.10;;;1.45;;
10711;SDS011;5407;51.234;6.804;2022-09-03T00:13:13;2.25;;;1.20;;
10711;SDS011;5407;51.234;6.804;2022-09-03T00:15:42;3.05;;;1.13;;
10711;SDS011;5407;51.234;6.804;2022-09-03T00:18:11;2.78;;;1.52;;
10711;SDS011;5407;51.234;6.804;2022-09-03T00:20:41;2.17;;;1.30;;
10711;SDS011;5407;51.234;6.804;2022-09-03T00:23:14;3.15;;;1.30;;
10711;SDS011;5407;51.234;6.804;2022-09-03T00:25:46;1.63;;;1.40;;
10711;SDS011;5407;51.234;6.804;2022-09-03T00:28:18;2.33;;;1.25;;
10711;SDS011;5407;51.234;6.804;2022-09-03T00:30:50;2.45;;;1.30;;
10711;SDS011;5407;51.234;6.804;2022-09-03T00:33:35;4.22;;;1.30;;
10711;SDS011;5407;51.234;6.804;2022-09-03T00:36:09;2.53;;;1.17;;
10711;SDS011;5407;51.234;6.804;2022-09-03T00:38:41;1.98;;;0.93;;
10711;SDS011;5407;51.234;6.804;2022-09-03T00:41:12;1.73;;;1.02;;
10711;SDS011;5407;51.234;6.804;2022-09-03T00:43:55;7.95;;;1.40;;
10711;SDS011;5407;51.234;6.804;2022-09-03T00:46:35;1.80;;;1.02;;
10711;SDS011;5407;51.234;6.804;2022-09-03T00:49:13;3.67;;;1.25;;
10711;SDS011;5407;51.234;6.804;2022-09-03T00:51:50;1.92;;;1.15;;
10711;SDS011;5407;51.234;6.804;2022-09-03T00:54:31;1.30;;;1.10;;
10711;SDS011;5407;51.234;6.804;2022-09-03T00:57:12;2.25;;;1.20;;
10711;SDS011;5407;51.234;6.804;2022-09-03T00:59:52;2.15;;;1.20;;
10711;SDS011;5407;51.234;6.804;2022-09-03T01:02:23;2.95;;;1.30;;
10711;SDS011;5407;51.234;6.804;2022-09-03T01:04:59;1.48;;;1.25;;
10711;SDS011;5407;51.234;6.804;2022-09-03T01:07:37;3.55;;;1.30;;
10711;SDS011;5407;51.234;6.804;2022-09-03T01:10:17;2.85;;;1.30;;
10711;SDS011;5407;51.234;6.804;2022-09-03T01:12:58;1.60;;;1.00;;
10711;SDS011;5407;51.234;6.804;2022-09-03T01:15:34;1.20;;;1.10;;
10711;SDS011;5407;51.234;6.804;2022-09-03T01:18:11;3.45;;;1.08;;
10711;SDS011;5407;51.234;6.804;2022-09-03T01:20:49;1.30;;;1.10;;
10711;SDS011;5407;51.234;6.804;2022-09-03T01:23:34;1.50;;;1.23;;
10711;SDS011;5407;51.234;6.804;2022-09-03T01:26:18;1.27;;;1.02;;
10711;SDS011;5407;51.234;6.804;2022-09-03T01:28:58;2.33;;;0.95;;
10711;SDS011;5407;51.234;6.804;2022-09-03T01:31:37;1.55;;;1.00;;
10711;SDS011;5407;51.234;6.804;2022-09-03T01:34:19;2.20;;;1.00;;
10711;SDS011;5407;51.234;6.804;2022-09-03T01:36:58;1.25;;;1.08;;
10711;SDS011;5407;51.234;6.804;2022-09-03T01:39:36;1.70;;;1.20;;
10711;SDS011;5407;51.234;6.804;2022-09-03T01:42:14;2.13;;;1.30;;
10711;SDS011;5407;51.234;6.804;2022-09-03T01:44:52;1.10;;;1.00;;
10711;SDS011;5407;51.234;6.804;2022-09-03T01:47:45;1.10;;;1.00;;
10711;SDS011;5407;51.234;6.804;2022-09-03T01:50:24;2.40;;;1.13;;
10711;SDS011;5407;51.234;6.804;2022-09-03T01:53:02;3.30;;;1.17;;
10711;SDS011;5407;51.234;6.804;2022-09-03T01:55:38;1.10;;;1.00;;
10711;SDS011;5407;51.234;6.804;2022-09-03T01:58:23;1.33;;;0.95;;
10711;SDS011;5407;51.234;6.804;2022-09-03T02:00:58;1.50;;;1.00;;
10711;SDS011;5407;51.234;6.804;2022-09-03T02:03:32;1.77;;;1.30;;
10711;SDS011;5407;51.234;6.804;2022-09-03T02:06:03;2.13;;;1.20;;
10711;SDS011;5407;51.234;6.804;2022-09-03T02:08:31;1.73;;;1.10;;
10711;SDS011;5407;51.234;6.804;2022-09-03T02:10:59;3.35;;;1.30;;
10711;SDS011;5407;51.234;6.804;2022-09-03T02:13:28;1.33;;;1.08;;
10711;SDS011;5407;51.234;6.804;2022-09-03T02:16:01;0.98;;;0.98;;
10711;SDS011;5407;51.234;6.804;2022-09-03T02:18:35;1.80;;;1.00;;
10711;SDS011;5407;51.234;6.804;2022-09-03T02:21:05;1.27;;;1.17;;
10711;SDS011;5407;51.234;6.804;2022-09-03T02:23:34;3.28;;;1.25;;
10711;SDS011;5407;51.234;6.804;2022-09-03T02:26:04;2.45;;;1.02;;
10711;SDS011;5407;51.234;6.804;2022-09-03T02:28:33;1.23;;;1.08;;
10711;SDS011;5407;51.234;6.804;2022-09-03T02:31:02;2.22;;;1.20;;
10711;SDS011;5407;51.234;6.804;2022-09-03T02:33:35;1.00;;;1.00;;
10711;SDS011;5407;51.234;6.804;2022-09-03T02:36:04;2.70;;;1.00;;
10711;SDS011;5407;51.234;6.804;2022-09-03T02:38:32;2.58;;;1.08;;
10711;SDS011;5407;51.234;6.804;2022-09-03T02:41:00;3.10;;;1.10;;
10711;SDS011;5407;51.234;6.804;2022-09-03T02:43:29;2.35;;;1.10;;
10711;SDS011;5407;51.234;6.804;2022-09-03T02:46:03;2.03;;;1.10;;
10711;SDS011;5407;51.234;6.804;2022-09-03T02:48:33;1.92;;;1.00;;
10711;SDS011;5407;51.234;6.804;2022-09-03T02:51:00;3.63;;;1.27;;
10711;SDS011;5407;51.234;6.804;2022-09-03T02:53:27;1.42;;;0.95;;
10711;SDS011;5407;51.234;6.804;2022-09-03T02:55:56;1.67;;;1.13;;
10711;SDS011;5407;51.234;6.804;2022-09-03T02:58:24;1.45;;;1.02;;
10711;SDS011;5407;51.234;6.804;2022-09-03T03:00:51;1.67;;;1.00;;
10711;SDS011;5407;51.234;6.804;2022-09-03T03:03:20;2.08;;;1.20;;
10711;SDS011;5407;51.234;6.804;2022-09-03T03:05:47;1.75;;;1.02;;
10711;SDS011;5407;51.234;6.804;2022-09-03T03:08:16;1.33;;;1.10;;
10711;SDS011;5407;51.234;6.804;2022-09-03T03:10:45;2.03;;;1.10;;
10711;SDS011;5407;51.234;6.804;2022-09-03T03:13:13;3.03;;;1.00;;
10711;SDS011;5407;51.234;6.804;2022-09-03T03:15:42;2.25;;;1.10;;
10711;SDS011;5407;51.234;6.804;2022-09-03T03:18:10;2.55;;;1.10;;
10711;SDS011;5407;51.234;6.804;2022-09-03T03:20:40;1.73;;;1.10;;
10711;SDS011;5407;51.234;6.804;2022-09-03T03:23:07;2.80;;;1.20;;
10711;SDS011;5407;51.234;6.804;2022-09-03T03:25:35;1.88;;;0.90;;
10711;SDS011;5407;51.234;6.804;2022-09-03T03:28:03;1.70;;;1.00;;
10711;SDS011;5407;51.234;6.804;2022-09-03T03:30:31;2.17;;;1.20;;
10711;SDS011;5407;51.234;6.804;2022-09-03T03:32:58;3.08;;;1.00;;
10711;SDS011;5407;51.234;6.804;2022-09-03T03:35:25;2.75;;;1.15;;
10711;SDS011;5407;51.234;6.804;2022-09-03T03:37:56;3.10;;;1.10;;
10711;SDS011;5407;51.234;6.804;2022-09-03T03:40:22;1.67;;;1.05;;
10711;SDS011;5407;51.234;6.804;2022-09-03T03:42:49;1.52;;;1.10;;
10711;SDS011;5407;51.234;6.804;2022-09-03T03:45:17;1.98;;;0.88;;
10711;SDS011;5407;51.234;6.804;2022-09-03T03:47:44;1.58;;;1.10;;
10711;SDS011;5407;51.234;6.804;2022-09-03T03:50:11;1.40;;;1.10;;
10711;SDS011;5407;51.234;6.804;2022-09-03T03:52:38;1.10;;;1.00;;
10711;SDS011;5407;51.234;6.804;2022-09-03T03:55:06;2.38;;;1.15;;
10711;SDS011;5407;51.234;6.804;2022-09-03T03:57:33;3.25;;;1.00;;
10711;SDS011;5407;51.234;6.804;2022-09-03T04:00:00;2.47;;;1.00;;
10711;SDS011;5407;51.234;6.804;2022-09-03T04:02:39;1.08;;;0.95;;
10711;SDS011;5407;51.234;6.804;2022-09-03T04:05:06;2.85;;;1.15;;
10711;SDS011;5407;51.234;6.804;2022-09-03T04:07:34;1.10;;;1.00;;
10711;SDS011;5407;51.234;6.804;2022-09-03T04:10:01;1.58;;;1.05;;
10711;SDS011;5407;51.234;6.804;2022-09-03T04:12:29;1.30;;;1.10;;
10711;SDS011;5407;51.234;6.804;2022-09-03T04:14:57;0.93;;;0.90;;
10711;SDS011;5407;51.234;6.804;2022-09-03T04:17:24;8.50;;;1.20;;
10711;SDS011;5407;51.234;6.804;2022-09-03T04:19:51;1.75;;;1.15;;
10711;SDS011;5407;51.234;6.804;2022-09-03T04:22:17;2.90;;;1.02;;
10711;SDS011;5407;51.234;6.804;2022-09-03T04:24:44;2.55;;;1.10;;
10711;SDS011;5407;51.234;6.804;2022-09-03T04:27:11;1.50;;;0.90;;
10711;SDS011;5407;51.234;6.804;2022-09-03T04:29:40;1.50;;;1.13;;
10711;SDS011;5407;51.234;6.804;2022-09-03T04:32:06;1.45;;;1.00;;
10711;SDS011;5407;51.234;6.804;2022-09-03T04:34:51;2.35;;;1.00;;
10711;SDS011;5407;51.234;6.804;2022-09-03T04:37:18;3.33;;;0.93;;
10711;SDS011;5407;51.234;6.804;2022-09-03T04:39:45;2.22;;;1.30;;
10711;SDS011;5407;51.234;6.804;2022-09-03T04:42:11;3.42;;;1.05;;
10711;SDS011;5407;51.234;6.804;2022-09-03T04:44:40;3.70;;;1.20;;
10711;SDS011;5407;51.234;6.804;2022-09-03T04:47:07;2.70;;;1.20;;
10711;SDS011;5407;51.234;6.804;2022-09-03T04:49:34;1.27;;;0.90;;
10711;SDS011;5407;51.234;6.804;2022-09-03T04:52:01;1.77;;;1.15;;
10711;SDS011;5407;51.234;6.804;2022-09-03T04:54:28;1.63;;;1.20;;
10711;SDS011;5407;51.234;6.804;2022-09-03T04:56:55;3.42;;;1.17;;
10711;SDS011;5407;51.234;6.804;2022-09-03T04:59:22;1.33;;;1.10;;
10711;SDS011;5407;51.234;6.804;2022-09-03T05:01:50;2.30;;;1.10;;
10711;SDS011;5407;51.234;6.804;2022-09-03T05:04:17;5.85;;;1.40;;
10711;SDS011;5407;51.234;6.804;2022-09-03T05:06:44;2.47;;;1.30;;
10711;SDS011;5407;51.234;6.804;2022-09-03T05:09:11;1.17;;;1.08;;
10711;SDS011;5407;51.234;6.804;2022-09-03T05:11:38;1.75;;;1.15;;
10711;SDS011;5407;51.234;6.804;2022-09-03T05:14:05;2.00;;;1.10;;
10711;SDS011;5407;51.234;6.804;2022-09-03T05:16:36;1.20;;;1.10;;
10711;SDS011;5407;51.234;6.804;2022-09-03T05:19:04;1.60;;;1.17;;
10711;SDS011;5407;51.234;6.804;2022-09-03T05:21:32;1.85;;;1.10;;
10711;SDS011;5407;51.234;6.804;2022-09-03T05:24:00;1.83;;;1.20;;
10711;SDS011;5407;51.234;6.804;2022-09-03T05:26:28;2.55;;;1.40;;
10711;SDS011;5407;51.234;6.804;2022-09-03T05:28:57;1.13;;;1.08;;
10711;SDS011;5407;51.234;6.804;2022-09-03T05:31:25;3.97;;;1.20;;
10711;SDS011;5407;51.234;6.804;2022-09-03T05:33:54;3.28;;;1.10;;
10711;SDS011;5407;51.234;6.804;2022-09-03T05:36:24;1.83;;;1.20;;
10711;SDS011;5407;51.234;6.804;2022-09-03T05:38:53;1.92;;;1.30;;
10711;SDS011;5407;51.234;6.804;2022-09-03T05:41:20;2.45;;;1.00;;
10711;SDS011;5407;51.234;6.804;2022-09-03T05:43:47;1.42;;;1.15;;
10711;SDS011;5407;51.234;6.804;2022-09-03T05:46:20;2.75;;;1.20;;
10711;SDS011;5407;51.234;6.804;2022-09-03T05:48:51;2.25;;;1.23;;
10711;SDS011;5407;51.234;6.804;2022-09-03T05:51:18;1.27;;;1.10;;
10711;SDS011;5407;51.234;6.804;2022-09-03T05:53:47;1.20;;;1.10;;
10711;SDS011;5407;51.234;6.804;2022-09-03T05:56:15;2.05;;;1.20;;
10711;SDS011;5407;51.234;6.804;2022-09-03T05:58:44;2.92;;;1.27;;
10711;SDS011;5407;51.234;6.804;2022-09-03T06:01:12;1.98;;;1.27;;
10711;SDS011;5407;51.234;6.804;2022-09-03T06:03:42;2.80;;;1.23;;
10711;SDS011;5407;51.234;6.804;2022-09-03T06:06:10;3.13;;;1.10;;
10711;SDS011;5407;51.234;6.804;2022-09-03T06:08:39;1.30;;;1.20;;
10711;SDS011;5407;51.234;6.804;2022-09-03T06:11:10;1.33;;;1.17;;
10711;SDS011;5407;51.234;6.804;2022-09-03T06:13:37;1.10;;;1.10;;
10711;SDS011;5407;51.234;6.804;2022-09-03T06:16:05;2.47;;;1.00;;
10711;SDS011;5407;51.234;6.804;2022-09-03T06:18:33;3.35;;;1.35;;
10711;SDS011;5407;51.234;6.804;2022-09-03T06:21:01;1.63;;;1.23;;
10711;SDS011;5407;51.234;6.804;2022-09-03T06:23:30;1.13;;;1.02;;
10711;SDS011;5407;51.234;6.804;2022-09-03T06:25:58;1.08;;;0.98;;
10711;SDS011;5407;51.234;6.804;2022-09-03T06:28:28;1.20;;;1.10;;
10711;SDS011;5407;51.234;6.804;2022-09-03T06:30:56;5.05;;;1.25;;
10711;SDS011;5407;51.234;6.804;2022-09-03T06:33:24;2.42;;;1.10;;
10711;SDS011;5407;51.234;6.804;2022-09-03T06:35:51;1.58;;;1.20;;
10711;SDS011;5407;51.234;6.804;2022-09-03T06:38:21;1.15;;;1.02;;
10711;SDS011;5407;51.234;6.804;2022-09-03T06:40:50;3.88;;;1.25;;
10711;SDS011;5407;51.234;6.804;2022-09-03T06:43:19;1.48;;;1.00;;
10711;SDS011;5407;51.234;6.804;2022-09-03T06:45:53;1.48;;;1.38;;
10711;SDS011;5407;51.234;6.804;2022-09-03T06:48:21;1.20;;;1.10;;
10711;SDS011;5407;51.234;6.804;2022-09-03T06:50:55;3.78;;;1.13;;
10711;SDS011;5407;51.234;6.804;2022-09-03T06:53:24;2.55;;;1.08;;
10711;SDS011;5407;51.234;6.804;2022-09-03T06:55:52;1.25;;;1.08;;
10711;SDS011;5407;51.234;6.804;2022-09-03T06:58:20;1.27;;;1.10;;
10711;SDS011;5407;51.234;6.804;2022-09-03T07:00:47;2.85;;;1.10;;
10711;SDS011;5407;51.234;6.804;2022-09-03T07:03:17;4.28;;;1.33;;
10711;SDS011;5407;51.234;6.804;2022-09-03T07:05:45;1.80;;;1.13;;
10711;SDS011;5407;51.234;6.804;2022-09-03T07:08:12;2.08;;;1.20;;
10711;SDS011;5407;51.234;6.804;2022-09-03T07:10:39;2.40;;;0.90;;
10711;SDS011;5407;51.234;6.804;2022-09-03T07:13:07;3.67;;;1.15;;
10711;SDS011;5407;51.234;6.804;2022-09-03T07:15:34;3.50;;;1.58;;
10711;SDS011;5407;51.234;6.804;2022-09-03T07:18:01;1.90;;;1.20;;
10711;SDS011;5407;51.234;6.804;2022-09-03T07:20:30;1.17;;;1.02;;
10711;SDS011;5407;51.234;6.804;2022-09-03T07:22:57;1.40;;;1.08;;
10711;SDS011;5407;51.234;6.804;2022-09-03T07:25:24;3.60;;;1.10;;
10711;SDS011;5407;51.234;6.804;2022-09-03T07:27:51;4.50;;;1.10;;
10711;SDS011;5407;51.234;6.804;2022-09-03T07:30:18;2.55;;;1.10;;
10711;SDS011;5407;51.234;6.804;2022-09-03T07:32:45;1.52;;;0.88;;
10711;SDS011;5407;51.234;6.804;2022-09-03T07:35:15;1.20;;;1.08;;
10711;SDS011;5407;51.234;6.804;2022-09-03T07:37:44;2.05;;;1.40;;
10711;SDS011;5407;51.234;6.804;2022-09-03T07:40:11;3.67;;;1.60;;
10711;SDS011;5407;51.234;6.804;2022-09-03T07:42:38;2.28;;;1.10;;
10711;SDS011;5407;51.234;6.804;2022-09-03T07:45:05;3.80;;;1.20;;
10711;SDS011;5407;51.234;6.804;2022-09-03T07:47:35;1.45;;;1.30;;
10711;SDS011;5407;51.234;6.804;2022-09-03T07:50:02;2.30;;;1.27;;
10711;SDS011;5407;51.234;6.804;2022-09-03T07:52:29;6.07;;;1.48;;
10711;SDS011;5407;51.234;6.804;2022-09-03T07:54:58;2.00;;;1.30;;
10711;SDS011;5407;51.234;6.804;2022-09-03T07:57:24;2.05;;;1.13;;
10711;SDS011;5407;51.234;6.804;2022-09-03T07:59:51;2.80;;;1.10;;
10711;SDS011;5407;51.234;6.804;2022-09-03T08:02:18;3.58;;;1.17;;
10711;SDS011;5407;51.234;6.804;2022-09-03T08:04:45;1.92;;;0.90;;
10711;SDS011;5407;51.234;6.804;2022-09-03T08:07:12;3.03;;;1.30;;
10711;SDS011;5407;51.234;6.804;2022-09-03T08:09:39;1.65;;;1.00;;
10711;SDS011;5407;51.234;6.804;2022-09-03T08:12:07;1.58;;;1.13;;
10711;SDS011;5407;51.234;6.804;2022-09-03T08:14:34;2.22;;;1.40;;
10711;SDS011;5407;51.234;6.804;2022-09-03T08:17:01;3.05;;;1.17;;
10711;SDS011;5407;51.234;6.804;2022-09-03T08:19:28;6.32;;;1.38;;
10711;SDS011;5407;51.234;6.804;2022-09-03T08:21:55;2.20;;;1.50;;
10711;SDS011;5407;51.234;6.804;2022-09-03T08:24:22;3.83;;;1.50;;
10711;SDS011;5407;51.234;6.804;2022-09-03T08:26:50;2.45;;;1.30;;
10711;SDS011;5407;51.234;6.804;2022-09-03T08:29:18;2.03;;;1.40;;
10711;SDS011;5407;51.234;6.804;2022-09-03T08:31:45;2.17;;;1.33;;
10711;SDS011;5407;51.234;6.804;2022-09-03T08:34:13;4.20;;;1.75;;
10711;SDS011;5407;51.234;6.804;2022-09-03T08:36:41;5.18;;;1.42;;
10711;SDS011;5407;51.234;6.804;2022-09-03T08:39:09;1.95;;;1.38;;
10711;SDS011;5407;51.234;6.804;2022-09-03T08:41:40;4.20;;;1.52;;
10711;SDS011;5407;51.234;6.804;2022-09-03T08:44:22;2.17;;;1.27;;
10711;SDS011;5407;51.234;6.804;2022-09-03T08:46:54;2.00;;;1.40;;
10711;SDS011;5407;51.234;6.804;2022-09-03T08:49:26;1.80;;;1.13;;
10711;SDS011;5407;51.234;6.804;2022-09-03T08:51:59;3.90;;;1.23;;
10711;SDS011;5407;51.234;6.804;2022-09-03T08:54:30;5.93;;;1.45;;
10711;SDS011;5407;51.234;6.804;2022-09-03T08:56:58;2.70;;;1.45;;
10711;SDS011;5407;51.234;6.804;2022-09-03T08:59:28;1.83;;;1.27;;
10711;SDS011;5407;51.234;6.804;2022-09-03T09:01:59;2.25;;;1.10;;
10711;SDS011;5407;51.234;6.804;2022-09-03T09:04:39;1.60;;;1.02;;
10711;SDS011;5407;51.234;6.804;2022-09-03T09:07:20;4.10;;;1.35;;
10711;SDS011;5407;51.234;6.804;2022-09-03T09:09:53;4.18;;;1.55;;
10711;SDS011;5407;51.234;6.804;2022-09-03T09:12:32;2.55;;;1.40;;
10711;SDS011;5407;51.234;6.804;2022-09-03T09:15:06;2.63;;;1.80;;
10711;SDS011;5407;51.234;6.804;2022-09-03T09:20:29;2.20;;;1.20;;
10711;SDS011;5407;51.234;6.804;2022-09-03T09:23:06;4.90;;;1.73;;
10711;SDS011;5407;51.234;6.804;2022-09-03T09:25:38;3.47;;;1.80;;
10711;SDS011;5407;51.234;6.804;2022-09-03T09:28:14;3.00;;;1.50;;
10711;SDS011;5407;51.234;6.804;2022-09-03T09:30:45;2.92;;;1.50;;
10711;SDS011;5407;51.234;6.804;2022-09-03T09:33:13;3.60;;;1.38;;
10711;SDS011;5407;51.234;6.804;2022-09-03T09:35:40;3.35;;;1.45;;
10711;SDS011;5407;51.234;6.804;2022-09-03T09:38:08;1.95;;;1.30;;
10711;SDS011;5407;51.234;6.804;2022-09-03T09:40:36;1.67;;;1.30;;
10711;SDS011;5407;51.234;6.804;2022-09-03T09:43:07;1.65;;;1.30;;
10711;SDS011;5407;51.234;6.804;2022-09-03T09:45:36;2.63;;;1.60;;
10711;SDS011;5407;51.234;6.804;2022-09-03T09:48:12;8.02;;;1.70;;
10711;SDS011;5407;51.234;6.804;2022-09-03T09:50:44;1.60;;;1.38;;
10711;SDS011;5407;51.234;6.804;2022-09-03T09:53:11;3.22;;;1.35;;
10711;SDS011;5407;51.234;6.804;2022-09-03T09:55:48;2.67;;;1.63;;
10711;SDS011;5407;51.234;6.804;2022-09-03T09:58:18;3.90;;;1.30;;
10711;SDS011;5407;51.234;6.804;2022-09-03T10:00:54;2.08;;;1.30;;
10711;SDS011;5407;51.234;6.804;2022-09-03T10:03:28;5.78;;;1.60;;
10711;SDS011;5407;51.234;6.804;2022-09-03T10:06:05;5.78;;;1.70;;
10711;SDS011;5407;51.234;6.804;2022-09-03T10:08:52;4.18;;;1.58;;
10711;SDS011;5407;51.234;6.804;2022-09-03T10:11:31;3.50;;;1.60;;
10711;SDS011;5407;51.234;6.804;2022-09-03T10:14:04;2.10;;;1.55;;
10711;SDS011;5407;51.234;6.804;2022-09-03T10:16:39;2.08;;;1.55;;
10711;SDS011;5407;51.234;6.804;2022-09-03T10:19:16;1.77;;;1.45;;
10711;SDS011;5407;51.234;6.804;2022-09-03T10:21:47;2.22;;;1.70;;
10711;SDS011;5407;51.234;6.804;2022-09-03T10:24:29;2.95;;;1.50;;
10711;SDS011;5407;51.234;6.804;2022-09-03T10:27:05;2.25;;;1.48;;
10711;SDS011;5407;51.234;6.804;2022-09-03T10:29:36;2.08;;;1.25;;
10711;SDS011;5407;51.234;6.804;2022-09-03T10:32:15;3.55;;;1.50;;
10711;SDS011;5407;51.234;6.804;2022-09-03T10:34:53;2.78;;;1.58;;
10711;SDS011;5407;51.234;6.804;2022-09-03T10:37:32;3.05;;;1.40;;
10711;SDS011;5407;51.234;6.804;2022-09-03T10:40:14;2.22;;;1.40;;
10711;SDS011;5407;51.234;6.804;2022-09-03T10:42:47;3.17;;;1.50;;
10711;SDS011;5407;51.234;6.804;2022-09-03T10:45:29;2.08;;;1.55;;
10711;SDS011;5407;51.234;6.804;2022-09-03T10:48:06;4.10;;;1.42;;
10711;SDS011;5407;51.234;6.804;2022-09-03T10:50:51;2.08;;;1.60;;
10711;SDS011;5407;51.234;6.804;2022-09-03T10:53:26;1.48;;;1.38;;
10711;SDS011;5407;51.234;6.804;2022-09-03T10:56:05;4.72;;;1.60;;
10711;SDS011;5407;51.234;6.804;2022-09-03T11:01:31;6.97;;;3.97;;
10711;SDS011;5407;51.234;6.804;2022-09-03T11:04:16;4.10;;;1.70;;
10711;SDS011;5407;51.234;6.804;2022-09-03T11:06:54;3.38;;;1.70;;
10711;SDS011;5407;51.234;6.804;2022-09-03T11:09:27;3.78;;;1.90;;
10711;SDS011;5407;51.234;6.804;2022-09-03T11:11:59;3.08;;;1.60;;
10711;SDS011;5407;51.234;6.804;2022-09-03T11:14:32;1.80;;;1.70;;
10711;SDS011;5407;51.234;6.804;2022-09-03T11:17:04;1.88;;;1.60;;
10711;SDS011;5407;51.234;6.804;2022-09-03T11:19:37;1.98;;;1.42;;
10711;SDS011;5407;51.234;6.804;2022-09-03T11:22:13;2.88;;;1.40;;
10711;SDS011;5407;51.234;6.804;2022-09-03T11:24:42;2.80;;;1.90;;
10711;SDS011;5407;51.234;6.804;2022-09-03T11:27:19;2.95;;;1.50;;
10711;SDS011;5407;51.234;6.804;2022-09-03T11:29:57;1.80;;;1.42;;
10711;SDS011;5407;51.234;6.804;2022-09-03T11:32:29;2.05;;;1.40;;
10711;SDS011;5407;51.234;6.804;2022-09-03T11:35:14;1.45;;;1.35;;
10711;SDS011;5407;51.234;6.804;2022-09-03T11:37:56;4.03;;;1.58;;
10711;SDS011;5407;51.234;6.804;2022-09-03T11:40:28;2.85;;;1.27;;
10711;SDS011;5407;51.234;6.804;2022-09-03T11:43:04;1.50;;;1.40;;
10711;SDS011;5407;51.234;6.804;2022-09-03T11:45:34;1.85;;;1.30;;
10711;SDS011;5407;51.234;6.804;2022-09-03T11:48:15;1.50;;;1.40;;
10711;SDS011;5407;51.234;6.804;2022-09-03T11:50:51;1.85;;;1.50;;
10711;SDS011;5407;51.234;6.804;2022-09-03T11:53:24;2.13;;;1.52;;
10711;SDS011;5407;51.234;6.804;2022-09-03T11:55:54;2.83;;;1.55;;
10711;SDS011;5407;51.234;6.804;2022-09-03T11:58:25;1.50;;;1.40;;
10711;SDS011;5407;51.234;6.804;2022-09-03T12:00:57;3.13;;;1.40;;
10711;SDS011;5407;51.234;6.804;2022-09-03T12:03:26;1.95;;;1.60;;
10711;SDS011;5407;51.234;6.804;2022-09-03T12:06:09;2.60;;;1.30;;
10711;SDS011;5407;51.234;6.804;2022-09-03T12:08:59;3.33;;;1.65;;
10711;SDS011;5407;51.234;6.804;2022-09-03T12:11:41;2.53;;;1.55;;
10711;SDS011;5407;51.234;6.804;2022-09-03T12:14:19;6.82;;;1.70;;
10711;SDS011;5407;51.234;6.804;2022-09-03T12:16:58;5.25;;;1.73;;
10711;SDS011;5407;51.234;6.804;2022-09-03T12:19:34;3.22;;;1.60;;
10711;SDS011;5407;51.234;6.804;2022-09-03T12:22:06;2.25;;;1.70;;
10711;SDS011;5407;51.234;6.804;2022-09-03T12:24:40;4.82;;;2.50;;
10711;SDS011;5407;51.234;6.804;2022-09-03T12:27:09;3.92;;;2.42;;
10711;SDS011;5407;51.234;6.804;2022-09-03T12:29:48;6.57;;;3.38;;
10711;SDS011;5407;51.234;6.804;2022-09-03T12:32:22;6.68;;;4.63;;
10711;SDS011;5407;51.234;6.804;2022-09-03T12:34:50;19.23;;;2.75;;
10711;SDS011;5407;51.234;6.804;2022-09-03T12:37:18;3.90;;;2.20;;
10711;SDS011;5407;51.234;6.804;2022-09-03T12:39:53;4.15;;;1.95;;
10711;SDS011;5407;51.234;6.804;2022-09-03T12:42:22;1.95;;;1.80;;
10711;SDS011;5407;51.234;6.804;2022-09-03T12:44:51;2.35;;;1.70;;
10711;SDS011;5407;51.234;6.804;2022-09-03T12:47:19;1.70;;;1.60;;
10711;SDS011;5407;51.234;6.804;2022-09-03T12:49:47;1.90;;;1.70;;
10711;SDS011;5407;51.234;6.804;2022-09-03T12:52:16;2.38;;;1.60;;
10711;SDS011;5407;51.234;6.804;2022-09-03T12:54:52;1.63;;;1.52;;
10711;SDS011;5407;51.234;6.804;2022-09-03T12:57:24;1.85;;;1.73;;
10711;SDS011;5407;51.234;6.804;2022-09-03T12:59:57;1.73;;;1.60;;
10711;SDS011;5407;51.234;6.804;2022-09-03T13:02:28;2.15;;;1.60;;
10711;SDS011;5407;51.234;6.804;2022-09-03T13:05:02;2.10;;;1.58;;
10711;SDS011;5407;51.234;6.804;2022-09-03T13:07:32;2.83;;;1.70;;
10711;SDS011;5407;51.234;6.804;2022-09-03T13:10:04;1.60;;;1.50;;
10711;SDS011;5407;51.234;6.804;2022-09-03T13:12:33;1.90;;;1.55;;
10711;SDS011;5407;51.234;6.804;2022-09-03T13:15:09;1.58;;;1.48;;
10711;SDS011;5407;51.234;6.804;2022-09-03T13:17:55;1.80;;;1.70;;
10711;SDS011;5407;51.234;6.804;2022-09-03T13:20:41;2.15;;;1.70;;
10711;SDS011;5407;51.234;6.804;2022-09-03T13:23:35;2.30;;;1.60;;
10711;SDS011;5407;51.234;6.804;2022-09-03T13:26:20;1.40;;;1.30;;
10711;SDS011;5407;51.234;6.804;2022-09-03T13:28:56;1.50;;;1.40;;
10711;SDS011;5407;51.234;6.804;2022-09-03T13:31:44;3.05;;;1.80;;
10711;SDS011;5407;51.234;6.804;2022-09-03T13:34:16;2.10;;;1.90;;
10711;SDS011;5407;51.234;6.804;2022-09-03T13:36:48;1.92;;;1.80;;
10711;SDS011;5407;51.234;6.804;2022-09-03T13:39:22;1.98;;;1.80;;
10711;SDS011;5407;51.234;6.804;2022-09-03T13:41:55;1.58;;;1.48;;
10711;SDS011;5407;51.234;6.804;2022-09-03T13:44:34;2.08;;;1.80;;
10711;SDS011;5407;51.234;6.804;2022-09-03T13:47:07;2.00;;;1.80;;
10711;SDS011;5407;51.234;6.804;2022-09-03T13:49:42;1.73;;;1.63;;
10711;SDS011;5407;51.234;6.804;2022-09-03T13:52:36;3.25;;;1.80;;
10711;SDS011;5407;51.234;6.804;2022-09-03T13:55:08;1.80;;;1.70;;
10711;SDS011;5407;51.234;6.804;2022-09-03T13:57:46;1.70;;;1.60;;
10711;SDS011;5407;51.234;6.804;2022-09-03T14:00:21;1.80;;;1.70;;
10711;SDS011;5407;51.234;6.804;2022-09-03T14:02:53;1.77;;;1.63;;
10711;SDS011;5407;51.234;6.804;2022-09-03T14:05:30;1.80;;;1.70;;
10711;SDS011;5407;51.234;6.804;2022-09-03T14:08:19;2.42;;;1.73;;
10711;SDS011;5407;51.234;6.804;2022-09-03T14:10:58;4.20;;;1.60;;
10711;SDS011;5407;51.234;6.804;2022-09-03T14:13:37;1.80;;;1.70;;
10711;SDS011;5407;51.234;6.804;2022-09-03T14:16:16;2.63;;;2.08;;
10711;SDS011;5407;51.234;6.804;2022-09-03T14:18:50;2.17;;;1.90;;
10711;SDS011;5407;51.234;6.804;2022-09-03T14:21:23;1.70;;;1.60;;
10711;SDS011;5407;51.234;6.804;2022-09-03T14:23:58;1.60;;;1.50;;
10711;SDS011;5407;51.234;6.804;2022-09-03T14:26:30;2.30;;;1.88;;
10711;SDS011;5407;51.234;6.804;2022-09-03T14:29:00;2.45;;;1.50;;
10711;SDS011;5407;51.234;6.804;2022-09-03T14:34:54;1.70;;;1.60;;
10711;SDS011;5407;51.234;6.804;2022-09-03T14:37:38;1.83;;;1.50;;
10711;SDS011;5407;51.234;6.804;2022-09-03T14:40:16;1.98;;;1.70;;
10711;SDS011;5407;51.234;6.804;2022-09-03T14:42:54;1.48;;;1.38;;
10711;SDS011;5407;51.234;6.804;2022-09-03T14:45:36;1.63;;;1.52;;
10711;SDS011;5407;51.234;6.804;2022-09-03T14:51:25;4.80;;;3.67;;
10711;SDS011;5407;51.234;6.804;2022-09-03T14:54:13;4.88;;;3.97;;
10711;SDS011;5407;51.234;6.804;2022-09-03T14:56:56;3.33;;;2.80;;
10711;SDS011;5407;51.234;6.804;2022-09-03T14:59:42;5.38;;;3.80;;
10711;SDS011;5407;51.234;6.804;2022-09-03T15:02:47;5.53;;;4.47;;
10711;SDS011;5407;51.234;6.804;2022-09-03T15:05:41;3.40;;;3.10;;
10711;SDS011;5407;51.234;6.804;2022-09-03T15:08:16;3.05;;;2.60;;
10711;SDS011;5407;51.234;6.804;2022-09-03T15:11:09;4.20;;;2.92;;
10711;SDS011;5407;51.234;6.804;2022-09-03T15:13:43;2.80;;;2.47;;
10711;SDS011;5407;51.234;6.804;2022-09-03T15:16:19;2.80;;;2.35;;
10711;SDS011;5407;51.234;6.804;2022-09-03T15:18:59;3.05;;;2.22;;
10711;SDS011;5407;51.234;6.804;2022-09-03T15:21:39;2.22;;;2.03;;
10711;SDS011;5407;51.234;6.804;2022-09-03T15:24:18;2.13;;;1.90;;
10711;SDS011;5407;51.234;6.804;2022-09-03T15:26:55;1.83;;;1.70;;
10711;SDS011;5407;51.234;6.804;2022-09-03T15:29:34;1.80;;;1.70;;
10711;SDS011;5407;51.234;6.804;2022-09-03T15:32:15;1.70;;;1.60;;
10711;SDS011;5407;51.234;6.804;2022-09-03T15:35:01;1.80;;;1.65;;
10711;SDS011;5407;51.234;6.804;2022-09-03T15:37:33;2.03;;;1.60;;
10711;SDS011;5407;51.234;6.804;2022-09-03T15:40:04;1.58;;;1.48;;
10711;SDS011;5407;51.234;6.804;2022-09-03T15:42:35;1.70;;;1.60;;
10711;SDS011;5407;51.234;6.804;2022-09-03T15:45:04;2.17;;;1.55;;